createdAt,value
2022-11-19T00:01:53.869Z,97.27
2022-11-19T00:04:23.495Z,99.00
2022-11-19T00:06:53.031Z,91.70
2022-11-19T00:09:22.367Z,108.52
2022-11-19T00:12:09.808Z,105.55
2022-11-19T00:14:39.791Z,104.43
2022-11-19T00:17:09.177Z,102.02
2022-11-19T00:19:38.637Z,101.75
2022-11-19T00:22:07.940Z,101.42
2022-11-19T00:24:37.251Z,104.85
2022-11-19T00:27:06.933Z,100.82
2022-11-19T00:29:36.588Z,95.07
2022-11-19T00:32:06.292Z,99.32
2022-11-19T00:34:35.529Z,99.05
2022-11-19T00:37:04.806Z,94.32
2022-11-19T00:39:34.012Z,92.12
2022-11-19T00:42:03.385Z,92.75
2022-11-19T00:44:37.008Z,84.75
2022-11-19T00:47:03.933Z,84.35
2022-11-19T00:49:33.370Z,87.15
2022-11-19T00:52:02.734Z,85.35
2022-11-19T00:54:32.079Z,85.85
2022-11-19T00:57:01.768Z,84.42
2022-11-19T00:59:31.173Z,91.87
2022-11-19T01:02:00.477Z,88.40
2022-11-19T01:04:29.850Z,96.30
2022-11-19T01:06:59.433Z,101.90
2022-11-19T01:09:29.655Z,91.22
2022-11-19T01:11:59.082Z,86.55
2022-11-19T01:14:28.578Z,86.55
2022-11-19T01:16:57.928Z,91.80
2022-11-19T01:19:27.252Z,88.65
2022-11-19T01:21:56.504Z,82.95
2022-11-19T01:24:25.815Z,93.35
2022-11-19T01:26:55.200Z,86.30
2022-11-19T01:29:24.451Z,85.60
2022-11-19T01:31:53.695Z,87.57
2022-11-19T01:34:23.207Z,85.17
2022-11-19T01:36:52.652Z,89.58
2022-11-19T01:39:22.076Z,83.80
2022-11-19T01:41:51.724Z,91.15
2022-11-19T01:44:50.143Z,82.80
2022-11-19T01:47:19.434Z,83.65
2022-11-19T01:49:48.827Z,82.67
2022-11-19T01:52:18.310Z,89.80
2022-11-19T01:54:49.605Z,89.17
2022-11-19T01:57:19.719Z,84.95
2022-11-19T01:59:51.360Z,90.28
2022-11-19T02:02:22.769Z,86.27
2022-11-19T02:04:52.508Z,99.35
2022-11-19T02:07:24.782Z,98.55
2022-11-19T02:09:54.111Z,98.17
2022-11-19T02:12:41.475Z,93.33
2022-11-19T02:15:35.059Z,90.47
2022-11-19T02:18:32.059Z,88.55
2022-11-19T02:21:04.491Z,86.75
2022-11-19T02:23:52.242Z,92.82
2022-11-19T02:26:47.001Z,92.35
2022-11-19T02:29:34.334Z,97.70
2022-11-19T02:32:21.624Z,88.75
2022-11-19T02:34:59.070Z,84.03
2022-11-19T02:37:54.100Z,86.28
2022-11-19T02:40:41.550Z,87.47
2022-11-19T02:43:37.223Z,90.97
2022-11-19T02:46:16.565Z,91.37
2022-11-19T02:48:48.348Z,82.50
2022-11-19T02:51:19.324Z,83.78
2022-11-19T02:53:49.579Z,88.03
2022-11-19T02:56:47.885Z,83.62
2022-11-19T02:59:37.395Z,89.45
2022-11-19T03:02:26.268Z,87.53
2022-11-19T03:04:56.989Z,87.62
2022-11-19T03:07:26.301Z,87.55
2022-11-19T03:09:58.442Z,93.70
2022-11-19T03:12:31.043Z,93.03
2022-11-19T03:18:02.853Z,94.83
2022-11-19T03:20:35.488Z,95.38
2022-11-19T03:23:13.237Z,92.30
2022-11-19T03:25:57.821Z,85.32
2022-11-19T03:28:30.075Z,83.90
2022-11-19T03:31:01.088Z,90.67
2022-11-19T03:33:32.617Z,88.07
2022-11-19T03:36:14.401Z,87.37
2022-11-19T03:38:46.260Z,94.37
2022-11-19T03:41:18.138Z,91.17
2022-11-19T03:43:50.554Z,94.13
2022-11-19T03:46:21.545Z,87.75
2022-11-19T03:48:52.539Z,91.97
2022-11-19T03:51:25.202Z,96.25
2022-11-19T03:53:54.665Z,97.62
2022-11-19T03:56:25.625Z,99.40
2022-11-19T03:58:55.050Z,96.55
2022-11-19T04:01:24.433Z,94.35
2022-11-19T04:04:11.692Z,93.22
2022-11-19T04:06:41.157Z,92.35
2022-11-19T04:09:10.403Z,90.67
2022-11-19T04:11:39.629Z,95.22
2022-11-19T04:14:08.900Z,99.42
2022-11-19T04:16:38.104Z,90.50
2022-11-19T04:19:07.671Z,97.10
2022-11-19T04:21:37.065Z,89.55
2022-11-19T04:24:07.330Z,97.80
2022-11-19T04:26:36.716Z,94.65
2022-11-19T04:29:06.171Z,90.90
2022-11-19T04:31:35.528Z,97.47
2022-11-19T04:34:04.928Z,103.20
2022-11-19T04:36:34.262Z,96.87
2022-11-19T04:39:03.603Z,98.25
2022-11-19T04:41:32.786Z,98.60
2022-11-19T04:44:02.210Z,97.33
2022-11-19T04:46:31.757Z,99.35
2022-11-19T04:49:01.004Z,95.62
2022-11-19T04:51:30.213Z,103.95
2022-11-19T04:53:59.464Z,98.95
2022-11-19T04:56:28.775Z,97.78
2022-11-19T04:58:58.068Z,102.55
2022-11-19T05:01:27.532Z,103.85
2022-11-19T05:03:56.924Z,100.02
2022-11-19T05:06:26.362Z,104.92
2022-11-19T05:08:55.584Z,98.85
2022-11-19T05:11:24.839Z,97.42
2022-11-19T05:13:57.193Z,100.45
2022-11-19T05:16:26.582Z,100.47
2022-11-19T05:18:55.816Z,101.25
2022-11-19T05:21:25.131Z,103.12
2022-11-19T05:23:54.362Z,97.45
2022-11-19T05:26:23.613Z,96.17
2022-11-19T05:28:52.916Z,94.42
2022-11-19T05:31:22.139Z,94.37
2022-11-19T05:33:51.473Z,97.10
2022-11-19T05:36:20.709Z,95.22
2022-11-19T05:38:50.050Z,92.27
2022-11-19T05:41:19.416Z,97.80
2022-11-19T05:43:48.633Z,100.07
2022-11-19T05:46:17.866Z,93.07
2022-11-19T05:48:47.706Z,100.10
2022-11-19T05:51:17.801Z,93.00
2022-11-19T05:53:47.067Z,96.42
2022-11-19T05:56:16.386Z,100.87
2022-11-19T05:58:45.619Z,95.77
2022-11-19T06:01:15.671Z,98.45
2022-11-19T06:03:45.060Z,97.57
2022-11-19T06:06:14.299Z,94.32
2022-11-19T06:08:43.722Z,99.72
2022-11-19T06:11:14.716Z,96.92
2022-11-19T06:13:43.911Z,95.47
2022-11-19T06:16:13.138Z,93.80
2022-11-19T06:18:42.390Z,89.97
2022-11-19T06:21:12.406Z,93.20
2022-11-19T06:23:41.864Z,93.22
2022-11-19T06:26:11.778Z,93.10
2022-11-19T06:28:40.982Z,91.37
2022-11-19T06:31:10.289Z,99.42
2022-11-19T06:33:39.725Z,92.90
2022-11-19T06:36:09.789Z,91.30
2022-11-19T06:38:39.191Z,95.90
2022-11-19T06:41:08.836Z,96.95
2022-11-19T06:43:38.115Z,87.33
2022-11-19T06:46:08.153Z,96.32
2022-11-19T06:48:37.906Z,89.07
2022-11-19T06:51:07.483Z,87.47
2022-11-19T06:53:37.205Z,91.53
2022-11-19T06:56:07.887Z,89.85
2022-11-19T06:58:37.178Z,91.70
2022-11-19T07:01:06.534Z,89.05
2022-11-19T07:03:35.932Z,89.40
2022-11-19T07:06:06.767Z,89.72
2022-11-19T07:08:37.783Z,91.63
2022-11-19T07:11:25.675Z,91.00
2022-11-19T07:13:59.797Z,93.62
2022-11-19T07:16:34.804Z,96.67
2022-11-19T07:19:06.168Z,91.53
2022-11-19T07:21:35.720Z,91.42
2022-11-19T07:24:07.687Z,95.85
2022-11-19T07:26:37.432Z,93.90
2022-11-19T07:29:08.793Z,91.65
2022-11-19T07:31:38.204Z,91.35
2022-11-19T07:34:08.669Z,89.47
2022-11-19T07:36:38.632Z,89.97
2022-11-19T07:39:08.057Z,92.17
2022-11-19T07:41:54.957Z,94.83
2022-11-19T07:44:24.218Z,91.92
2022-11-19T07:46:53.764Z,90.28
2022-11-19T07:49:23.429Z,89.40
2022-11-19T07:51:53.560Z,92.97
2022-11-19T07:54:22.790Z,85.22
2022-11-19T07:56:52.365Z,87.62
2022-11-19T07:59:22.126Z,86.78
2022-11-19T08:01:51.693Z,86.45
2022-11-19T08:04:21.501Z,82.82
2022-11-19T08:06:50.714Z,86.12
2022-11-19T08:09:20.742Z,80.32
2022-11-19T08:11:50.302Z,83.60
2022-11-19T08:14:19.579Z,81.65
2022-11-19T08:17:06.626Z,81.75
2022-11-19T08:19:36.543Z,80.53
2022-11-19T08:22:05.762Z,82.33
2022-11-19T08:24:35.219Z,85.72
2022-11-19T08:27:05.534Z,82.25
2022-11-19T08:29:34.948Z,82.85
2022-11-19T08:32:04.249Z,80.75
2022-11-19T08:34:34.401Z,78.17
2022-11-19T08:37:03.778Z,80.77
2022-11-19T08:39:33.108Z,81.37
2022-11-19T08:42:20.670Z,75.62
2022-11-19T08:44:50.016Z,80.62
2022-11-19T08:47:19.467Z,78.72
2022-11-19T08:49:48.701Z,77.00
2022-11-19T08:52:18.000Z,79.87
2022-11-19T08:54:47.227Z,79.27
2022-11-19T08:57:16.703Z,78.45
2022-11-19T08:59:45.984Z,74.27
2022-11-19T09:02:15.405Z,77.27
2022-11-19T09:04:44.860Z,74.62
2022-11-19T09:07:14.351Z,73.25
2022-11-19T09:09:44.337Z,74.37
2022-11-19T09:12:13.750Z,71.65
2022-11-19T09:14:43.110Z,74.87
2022-11-19T09:17:12.545Z,69.32
2022-11-19T09:19:41.759Z,74.53
2022-11-19T09:22:11.109Z,71.28
2022-11-19T09:24:40.345Z,71.75
2022-11-19T09:27:09.676Z,75.40
2022-11-19T09:29:38.907Z,70.08
2022-11-19T09:32:08.200Z,72.50
2022-11-19T09:34:39.141Z,72.75
2022-11-19T09:37:09.987Z,71.47
2022-11-19T09:39:39.366Z,69.03
2022-11-19T09:42:14.888Z,67.50
2022-11-19T09:45:05.687Z,66.22
2022-11-19T09:47:47.152Z,71.90
2022-11-19T09:50:24.808Z,70.30
2022-11-19T09:52:57.232Z,70.28
2022-11-19T09:55:37.868Z,75.20
2022-11-19T09:58:13.090Z,66.70
2022-11-19T10:00:42.420Z,63.87
2022-11-19T10:03:20.903Z,69.22
2022-11-19T10:06:17.463Z,67.05
2022-11-19T10:09:06.425Z,66.92
2022-11-19T10:11:44.943Z,65.52
2022-11-19T10:14:46.447Z,61.98
2022-11-19T10:17:21.765Z,67.50
2022-11-19T10:20:02.789Z,69.22
2022-11-19T10:22:40.371Z,64.10
2022-11-19T10:25:18.082Z,64.15
2022-11-19T10:27:56.327Z,67.35
2022-11-19T10:30:27.436Z,65.95
2022-11-19T10:33:08.933Z,65.57
2022-11-19T10:35:41.555Z,63.83
2022-11-19T10:38:22.902Z,61.80
2022-11-19T10:40:55.722Z,61.83
2022-11-19T10:43:45.291Z,61.80
2022-11-19T10:46:16.218Z,63.68
2022-11-19T10:48:47.500Z,63.85
2022-11-19T10:51:31.872Z,60.90
2022-11-19T10:54:03.709Z,61.70
2022-11-19T10:56:43.734Z,56.83
2022-11-19T10:59:19.058Z,62.70
2022-11-19T11:01:51.266Z,59.05
2022-11-19T11:04:25.509Z,64.00
2022-11-19T11:06:57.549Z,59.58
2022-11-19T11:09:37.465Z,60.78
2022-11-19T11:12:30.169Z,58.33
2022-11-19T11:15:11.436Z,56.60
2022-11-19T11:17:42.505Z,56.53
2022-11-19T11:20:21.155Z,54.85
2022-11-19T11:22:52.038Z,59.13
2022-11-19T11:25:26.812Z,54.25
2022-11-19T11:28:07.476Z,55.33
2022-11-19T11:30:36.970Z,55.20
2022-11-19T11:33:28.922Z,55.08
2022-11-19T11:36:01.748Z,53.50
2022-11-19T11:38:31.349Z,55.65
2022-11-19T11:42:01.991Z,56.33
2022-11-19T11:43:43.652Z,54.45
2022-11-19T11:46:13.456Z,56.45
2022-11-19T11:48:48.038Z,56.75
2022-11-19T11:51:27.955Z,53.85
2022-11-19T11:54:19.664Z,54.65
2022-11-19T11:56:49.149Z,53.73
2022-11-19T11:59:30.722Z,53.17
2022-11-19T12:02:08.916Z,53.55
2022-11-19T12:04:38.321Z,53.17
2022-11-19T12:07:13.294Z,56.58
2022-11-19T12:09:59.684Z,54.18
2022-11-19T12:12:43.741Z,59.20
2022-11-19T12:15:27.397Z,54.88
2022-11-19T12:18:17.955Z,51.28
2022-11-19T12:21:11.433Z,50.20
2022-11-19T12:24:04.974Z,51.25
2022-11-19T12:27:04.824Z,50.65
2022-11-19T12:29:53.615Z,48.13
2022-11-19T12:32:31.692Z,48.80
2022-11-19T12:35:08.166Z,45.83
2022-11-19T12:38:01.643Z,46.68
2022-11-19T12:40:59.417Z,50.55
2022-11-19T12:43:40.786Z,44.90
2022-11-19T12:46:16.566Z,46.80
2022-11-19T12:49:03.662Z,46.45
2022-11-19T12:51:44.988Z,45.43
2022-11-19T12:54:21.400Z,52.23
2022-11-19T12:57:03.728Z,48.05
2022-11-19T12:59:42.229Z,49.90
2022-11-19T13:02:36.429Z,51.20
2022-11-19T13:05:17.834Z,43.63
2022-11-19T13:07:59.717Z,45.78
2022-11-19T13:10:32.324Z,43.52
2022-11-19T13:13:04.262Z,46.75
2022-11-19T13:15:36.482Z,43.08
2022-11-19T13:18:09.394Z,45.67
2022-11-19T13:20:53.702Z,41.53
2022-11-19T13:23:26.309Z,41.65
2022-11-19T13:26:08.257Z,42.60
2022-11-19T13:28:40.851Z,43.80
2022-11-19T13:33:52.215Z,40.95
2022-11-19T13:36:43.030Z,39.75
2022-11-19T13:39:15.665Z,39.35
2022-11-19T13:42:10.192Z,39.67
2022-11-19T13:44:41.304Z,37.60
2022-11-19T13:47:25.251Z,35.73
2022-11-19T13:49:57.828Z,34.73
2022-11-19T13:52:32.862Z,34.67
2022-11-19T13:55:02.573Z,36.42
2022-11-19T13:57:38.012Z,36.60
2022-11-19T14:00:10.917Z,37.63
2022-11-19T14:03:21.367Z,37.83
2022-11-19T14:06:10.597Z,34.90
2022-11-19T14:08:51.623Z,38.60
2022-11-19T14:11:50.086Z,37.00
2022-11-19T14:14:48.857Z,35.63
2022-11-19T14:18:04.679Z,35.70
2022-11-19T14:20:57.366Z,34.95
2022-11-19T14:24:04.255Z,36.88
2022-11-19T14:26:51.177Z,32.20
2022-11-19T14:29:23.246Z,32.38
2022-11-19T14:32:07.724Z,33.48
2022-11-19T14:34:42.038Z,29.55
2022-11-19T14:37:19.434Z,32.10
2022-11-19T14:39:54.683Z,30.60
2022-11-19T14:42:24.087Z,30.37
2022-11-19T14:45:05.536Z,28.85
2022-11-19T14:47:39.814Z,33.25
2022-11-19T14:50:12.231Z,37.93
2022-11-19T14:52:55.586Z,34.92
2022-11-19T14:55:27.467Z,37.75
2022-11-19T14:58:05.570Z,35.13
2022-11-19T15:00:42.159Z,32.15
2022-11-19T15:03:20.858Z,34.27
2022-11-19T15:05:50.463Z,29.48
2022-11-19T15:08:22.967Z,35.08
2022-11-19T15:13:41.927Z,32.98
2022-11-19T15:16:16.797Z,28.65
2022-11-19T15:18:49.233Z,28.95
2022-11-19T15:24:24.531Z,31.17
2022-11-19T15:27:06.335Z,30.43
2022-11-19T15:30:09.378Z,33.80
2022-11-19T15:35:44.476Z,30.17
2022-11-19T15:38:20.212Z,32.48
2022-11-19T15:40:49.438Z,35.25
2022-11-19T15:43:39.790Z,31.07
2022-11-19T15:46:11.334Z,30.55
2022-11-19T15:49:04.603Z,28.03
2022-11-19T15:51:41.725Z,28.50
2022-11-19T15:54:12.402Z,28.20
2022-11-19T15:56:50.902Z,28.90
2022-11-19T15:59:21.504Z,30.90
2022-11-19T16:02:04.958Z,29.98
2022-11-19T16:04:36.511Z,28.50
2022-11-19T16:07:10.398Z,27.43
2022-11-19T16:09:39.758Z,28.90
2022-11-19T16:12:29.773Z,29.18
2022-11-19T16:15:16.999Z,27.95
2022-11-19T16:17:48.616Z,39.18
2022-11-19T16:20:21.154Z,46.73
2022-11-19T16:22:56.255Z,29.32
2022-11-19T16:25:40.255Z,33.83
2022-11-19T16:28:15.072Z,29.27
2022-11-19T16:30:51.990Z,31.87
2022-11-19T16:33:23.529Z,32.00
2022-11-19T16:35:54.303Z,28.67
2022-11-19T16:38:28.852Z,28.57
2022-11-19T16:41:16.112Z,30.57
2022-11-19T16:43:48.233Z,28.98
2022-11-19T16:46:20.483Z,31.35
2022-11-19T16:48:53.055Z,27.48
2022-11-19T16:51:42.237Z,28.35
2022-11-19T16:54:12.339Z,31.77
2022-11-19T16:56:44.053Z,28.90
2022-11-19T16:59:26.659Z,28.42
2022-11-19T17:01:59.743Z,27.27
2022-11-19T17:04:31.383Z,27.75
2022-11-19T17:07:01.002Z,21.27
2022-11-19T17:09:36.261Z,28.90
2022-11-19T17:12:17.624Z,29.90
2022-11-19T17:14:49.916Z,32.15
2022-11-19T17:17:29.665Z,27.77
2022-11-19T17:19:59.519Z,33.83
2022-11-19T17:22:36.199Z,28.05
2022-11-19T17:25:06.615Z,25.72
2022-11-19T17:27:38.329Z,27.30
2022-11-19T17:30:15.241Z,27.22
2022-11-19T17:32:47.074Z,24.98
2022-11-19T17:35:41.175Z,19.62
2022-11-19T17:38:16.060Z,26.68
2022-11-19T17:40:56.475Z,25.85
2022-11-19T17:43:57.108Z,23.77
2022-11-19T17:46:29.338Z,26.62
2022-11-19T17:48:59.033Z,24.80
2022-11-19T17:51:28.319Z,24.27
2022-11-19T17:53:58.181Z,25.17
2022-11-19T17:56:29.525Z,23.62
2022-11-19T17:58:59.730Z,23.77
2022-11-19T18:01:29.174Z,23.80
2022-11-19T18:03:59.224Z,25.37
2022-11-19T18:06:28.448Z,26.27
2022-11-19T18:08:57.671Z,25.27
2022-11-19T18:11:27.456Z,24.60
2022-11-19T18:13:57.904Z,24.18
2022-11-19T18:16:28.901Z,22.05
2022-11-19T18:18:58.254Z,21.07
2022-11-19T18:21:27.777Z,23.15
2022-11-19T18:23:57.089Z,24.18
2022-11-19T18:26:26.426Z,24.40
2022-11-19T18:28:56.691Z,23.70
2022-11-19T18:31:27.551Z,23.47
2022-11-19T18:33:57.940Z,22.70
2022-11-19T18:36:27.553Z,21.70
2022-11-19T18:38:56.986Z,23.32
2022-11-19T18:41:26.387Z,24.23
2022-11-19T18:44:13.475Z,22.35
2022-11-19T18:46:42.840Z,22.62
2022-11-19T18:49:12.175Z,23.85
2022-11-19T18:51:43.303Z,23.73
2022-11-19T18:54:13.276Z,24.52
2022-11-19T18:56:42.569Z,23.57
2022-11-19T18:59:16.180Z,23.10
2022-11-19T19:01:45.556Z,22.02
2022-11-19T19:04:14.985Z,23.90
2022-11-19T19:06:44.534Z,25.27
2022-11-19T19:09:15.607Z,25.17
2022-11-19T19:12:02.861Z,22.90
2022-11-19T19:14:32.156Z,21.00
2022-11-19T19:17:01.499Z,21.70
2022-11-19T19:19:31.384Z,23.67
2022-11-19T19:22:00.964Z,21.00
2022-11-19T19:24:31.461Z,19.95
2022-11-19T19:27:02.034Z,23.98
2022-11-19T19:29:31.596Z,24.60
2022-11-19T19:32:01.580Z,21.48
2022-11-19T19:34:30.961Z,22.70
2022-11-19T19:37:00.218Z,19.95
2022-11-19T19:39:29.600Z,21.77
2022-11-19T19:41:58.871Z,20.60
2022-11-19T19:44:28.227Z,22.30
2022-11-19T19:46:57.685Z,23.02
2022-11-19T19:49:28.569Z,24.23
2022-11-19T19:51:58.325Z,21.62
2022-11-19T19:54:27.835Z,23.55
2022-11-19T19:56:57.090Z,20.05
2022-11-19T19:59:26.383Z,23.73
2022-11-19T20:01:55.757Z,20.70
2022-11-19T20:04:25.216Z,20.88
2022-11-19T20:06:56.273Z,21.62
2022-11-19T20:09:25.957Z,24.00
2022-11-19T20:11:55.485Z,19.05
2022-11-19T20:14:24.859Z,21.33
2022-11-19T20:16:54.206Z,22.93
2022-11-19T20:19:24.004Z,21.45
2022-11-19T20:21:54.565Z,22.42
2022-11-19T20:24:23.843Z,21.52
2022-11-19T20:26:53.125Z,23.50
2022-11-19T20:29:23.977Z,23.38
2022-11-19T20:31:53.391Z,22.73
2022-11-19T20:34:22.846Z,25.52
2022-11-19T20:36:52.214Z,25.95
2022-11-19T20:39:22.031Z,24.85
2022-11-19T20:42:09.567Z,22.55
2022-11-19T20:44:39.067Z,24.75
2022-11-19T20:47:08.366Z,25.02
2022-11-19T20:49:39.694Z,26.82
2022-11-19T20:52:10.827Z,24.92
2022-11-19T20:54:42.039Z,23.52
2022-11-19T20:57:11.360Z,25.75
2022-11-19T20:59:40.656Z,25.40
2022-11-19T21:02:12.331Z,24.05
2022-11-19T21:04:41.664Z,27.17
2022-11-19T21:07:11.182Z,26.40
2022-11-19T21:09:40.815Z,27.50
2022-11-19T21:12:12.986Z,26.52
2022-11-19T21:14:42.536Z,28.57
2022-11-19T21:17:11.825Z,25.72
2022-11-19T21:19:41.173Z,27.25
2022-11-19T21:22:10.547Z,28.10
2022-11-19T21:24:40.198Z,28.83
2022-11-19T21:27:09.531Z,26.17
2022-11-19T21:29:38.904Z,29.40
2022-11-19T21:32:08.398Z,27.70
2022-11-19T21:34:39.379Z,25.90
2022-11-19T21:37:08.733Z,29.85
2022-11-19T21:39:39.064Z,28.47
2022-11-19T21:42:08.483Z,32.13
2022-11-19T21:44:38.159Z,30.82
2022-11-19T21:47:07.403Z,32.17
2022-11-19T21:49:36.761Z,29.00
2022-11-19T21:52:05.985Z,29.60
2022-11-19T21:54:35.564Z,29.87
2022-11-19T21:57:04.841Z,29.85
2022-11-19T21:59:34.376Z,30.37
2022-11-19T22:02:03.704Z,31.17
2022-11-19T22:04:32.997Z,27.82
2022-11-19T22:07:02.737Z,28.98
2022-11-19T22:09:32.075Z,32.08
2022-11-19T22:12:10.074Z,31.25
2022-11-19T22:14:39.459Z,33.45
2022-11-19T22:17:08.974Z,36.15
2022-11-19T22:19:38.567Z,41.85
2022-11-19T22:22:07.850Z,37.17
2022-11-19T22:24:37.396Z,33.85
2022-11-19T22:27:06.655Z,34.67
2022-11-19T22:29:36.140Z,34.92
2022-11-19T22:32:05.963Z,31.62
2022-11-19T22:34:35.359Z,32.23
2022-11-19T22:37:06.694Z,31.35
2022-11-19T22:39:35.963Z,32.98
2022-11-19T22:42:05.637Z,31.87
2022-11-19T22:44:35.022Z,28.85
2022-11-19T22:47:04.454Z,30.75
2022-11-19T22:49:33.832Z,32.42
2022-11-19T22:52:03.084Z,31.48
2022-11-19T22:54:35.066Z,30.35
2022-11-19T22:57:03.363Z,29.67
2022-11-19T22:59:32.771Z,31.30
2022-11-19T23:02:03.252Z,30.77
2022-11-19T23:04:32.471Z,28.87
2022-11-19T23:07:01.939Z,32.50
2022-11-19T23:09:31.167Z,28.40
2022-11-19T23:12:18.215Z,31.15
2022-11-19T23:14:47.753Z,30.27
2022-11-19T23:17:17.223Z,30.85
2022-11-19T23:19:46.826Z,30.72
2022-11-19T23:22:16.258Z,31.12
2022-11-19T23:24:45.532Z,30.72
2022-11-19T23:27:20.792Z,34.55
2022-11-19T23:29:45.889Z,35.15
2022-11-19T23:32:15.214Z,35.17
2022-11-19T23:34:45.100Z,32.30
2022-11-19T23:37:14.711Z,36.53
2022-11-19T23:39:44.013Z,33.55
2022-11-19T23:42:13.530Z,35.45
2022-11-19T23:44:42.750Z,33.00
2022-11-19T23:47:12.203Z,32.80
2022-11-19T23:49:41.415Z,34.90
2022-11-19T23:52:10.792Z,33.15
2022-11-19T23:54:40.009Z,35.55
2022-11-19T23:57:09.362Z,34.85
2022-11-19T23:59:38.665Z,35.65
